Torrington, WY

10:13 PM MST on January 30, 2015 (GMT -0700)
Torrington Municipal | Change Station
CLOSE
Current Station
Airport
Location: Torrington,
Elevation: 4206 ft
Nearby Weather Stations

Elev 4206 ft 42.06 °N, 104.15 °W | Updated 20 minutes ago

Clear
Clear
35 °F
Feels Like 29 °F
N
8
Wind Variable Wind from North

Today
High -- | Low -- °F
--% Chance of Precip.
Yesterday
High -- | Low -- °F
Precip. -- in
7:11 AM 5:08 PM
Waxing Gibbous, 87% visible
Pressure 30.14 in
Visibility 10.0 miles
Clouds Clear
Windchill 29 °F
Dew Point 26 °F
Humidity 70%
Rainfall 0.00 in
Snow Depth Not available.
UV 0 out of 12
Pollen .10 out of 12
Air Quality Not available.
Flu Activity Not available.
METAR KTOR 310453Z AUTO 36007KT 10SM CLR 02/M03 A3007 RMK AO2 SLP204 T00171033

More Conditions Fewer Conditions

Pressure 30.14 in
Visibility 10.0 miles
Clouds Clear
Windchill 29 °F
Dew Point 26 °F
Humidity 70%
Rainfall 0.00 in
Snow Depth Not available.
UV 0 out of 12
Pollen .10 out of 12
Air Quality Not available.
Flu Activity Not available.
METAR KTOR 310453Z AUTO 36007KT 10SM CLR 02/M03 A3007 RMK AO2 SLP204 T00171033

More Conditions Fewer Conditions

10-Day Weather Forecast

Almanac

Astronomy

Jan. 30, 2015 Rise Set
Actual Time
Civil Twilight
Nautical Twilight
Astronomical Twilight
Moon
Length of Visible Light
Length of Day
Tomorrow will be .
, % of the Moon is Illuminated

Today's Extremes

State Highs State Lows

Community

WunderPhotos

Upload Photos

1,792,005 photos uploaded!

WunderBlogs® & News

Nearby

Air Quality

  Air Quality AQ Index Pollutant
Not available.

Snow Depth

Station Depth Elevation

Earthquake Activity

City Distance Mag. Time & Date
Minimum magnitude displayed is 2.5.

Coastal Water Temperatures

Place Temperature

Nearby Weather Stations